createdAt,value
2023-01-03T00:00:54.341Z,11.27
2023-01-03T00:03:40.820Z,11.26
2023-01-03T00:06:20.718Z,11.32
2023-01-03T00:08:53.082Z,11.26
2023-01-03T00:11:40.807Z,11.21
2023-01-03T00:14:14.860Z,11.13
2023-01-03T00:16:51.053Z,11.08
2023-01-03T00:19:24.184Z,11.15
2023-01-03T00:21:56.293Z,11.17
2023-01-03T00:24:28.075Z,11.14
2023-01-03T00:26:59.893Z,11.05
2023-01-03T00:29:32.015Z,11.02
2023-01-03T00:32:04.336Z,11.00
2023-01-03T00:34:37.127Z,10.97
2023-01-03T00:37:07.311Z,10.96
2023-01-03T00:39:39.157Z,10.93
2023-01-03T00:42:10.958Z,10.88
2023-01-03T00:44:42.924Z,10.80
2023-01-03T00:47:14.598Z,10.78
2023-01-03T00:49:46.865Z,10.77
2023-01-03T00:52:18.630Z,10.75
2023-01-03T00:54:50.422Z,10.66
2023-01-03T00:57:22.766Z,10.69
2023-01-03T00:59:54.887Z,10.69
2023-01-03T01:02:27.189Z,10.59
2023-01-03T01:04:59.480Z,10.55
2023-01-03T01:07:31.712Z,10.54
2023-01-03T01:10:03.483Z,10.54
2023-01-03T01:12:35.299Z,10.59
2023-01-03T01:15:08.974Z,10.52
2023-01-03T01:17:41.526Z,10.63
2023-01-03T01:20:13.779Z,10.50
2023-01-03T01:22:45.832Z,10.49
2023-01-03T01:25:17.765Z,10.48
2023-01-03T01:27:49.391Z,10.46
2023-01-03T01:30:21.384Z,10.44
2023-01-03T01:32:53.413Z,10.43
2023-01-03T01:35:25.272Z,10.40
2023-01-03T01:37:57.509Z,10.42
2023-01-03T01:40:31.742Z,10.42
2023-01-03T01:43:34.515Z,10.40
2023-01-03T01:46:12.400Z,10.36
2023-01-03T01:48:44.430Z,10.36
2023-01-03T01:51:17.101Z,10.33
2023-01-03T01:53:47.313Z,10.34
2023-01-03T01:56:22.768Z,10.31
2023-01-03T01:58:56.173Z,10.30
2023-01-03T02:01:28.211Z,10.30
2023-01-03T02:04:04.711Z,10.26
2023-01-03T02:06:36.983Z,10.30
2023-01-03T02:09:08.808Z,10.27
2023-01-03T02:12:11.849Z,10.24
2023-01-03T02:14:57.033Z,10.26
2023-01-03T02:17:41.809Z,10.33
2023-01-03T02:20:27.748Z,10.35
2023-01-03T02:23:22.652Z,10.34
2023-01-03T02:26:23.545Z,10.23
2023-01-03T02:29:30.821Z,10.21
2023-01-03T02:32:13.450Z,10.22
2023-01-03T02:34:51.587Z,10.23
2023-01-03T02:37:31.502Z,10.17
2023-01-03T02:40:10.392Z,10.12
2023-01-03T02:43:01.925Z,10.17
2023-01-03T02:45:53.347Z,10.16
2023-01-03T02:48:36.935Z,10.15
2023-01-03T02:51:14.123Z,10.18
2023-01-03T02:53:48.696Z,10.15
2023-01-03T02:56:26.821Z,10.08
2023-01-03T02:59:02.584Z,10.06
2023-01-03T03:01:36.943Z,9.98
2023-01-03T03:04:10.002Z,9.95
2023-01-03T03:06:51.443Z,9.91
2023-01-03T03:09:23.519Z,9.92
2023-01-03T03:12:14.853Z,9.98
2023-01-03T03:14:51.500Z,9.85
2023-01-03T03:17:29.610Z,9.88
2023-01-03T03:20:19.619Z,9.86
2023-01-03T03:23:13.210Z,9.88
2023-01-03T03:25:49.393Z,9.85
2023-01-03T03:28:37.936Z,9.93
2023-01-03T03:31:15.798Z,9.92
2023-01-03T03:33:51.083Z,9.92
2023-01-03T03:36:33.900Z,9.81
2023-01-03T03:39:31.210Z,9.82
2023-01-03T03:42:36.899Z,9.79
2023-01-03T03:45:16.923Z,9.82
2023-01-03T03:47:54.892Z,9.79
2023-01-03T03:50:32.779Z,9.72
2023-01-03T03:53:09.122Z,9.66
2023-01-03T03:55:44.597Z,9.69
2023-01-03T03:58:19.358Z,9.73
2023-01-03T04:00:54.142Z,9.74
2023-01-03T04:03:26.628Z,9.70
2023-01-03T04:06:01.609Z,9.67
2023-01-03T04:08:33.455Z,9.64
2023-01-03T04:11:08.965Z,9.55
2023-01-03T04:13:41.518Z,9.55
2023-01-03T04:16:13.936Z,9.43
2023-01-03T04:18:45.864Z,9.41
2023-01-03T04:21:21.038Z,9.35
2023-01-03T04:23:52.979Z,9.24
2023-01-03T04:26:24.871Z,9.28
2023-01-03T04:28:56.954Z,9.28
2023-01-03T04:31:28.800Z,9.26
2023-01-03T04:34:00.578Z,9.19
2023-01-03T04:36:32.417Z,9.20
2023-01-03T04:39:04.928Z,9.14
2023-01-03T04:41:36.925Z,9.09
2023-01-03T04:44:09.970Z,9.09
2023-01-03T04:46:45.181Z,9.02
2023-01-03T04:49:20.858Z,9.03
2023-01-03T04:51:52.625Z,9.15
2023-01-03T04:54:24.269Z,8.95
2023-01-03T04:56:56.360Z,8.94
2023-01-03T04:59:28.184Z,8.81
2023-01-03T05:02:00.043Z,8.73
2023-01-03T05:04:32.287Z,8.70
2023-01-03T05:07:04.041Z,8.71
2023-01-03T05:09:35.835Z,8.71
2023-01-03T05:12:12.185Z,8.67
2023-01-03T05:14:44.103Z,8.58
2023-01-03T05:17:16.047Z,8.57
2023-01-03T05:20:05.807Z,8.56
2023-01-03T05:22:55.088Z,8.45
2023-01-03T05:25:44.736Z,8.50
2023-01-03T05:28:17.695Z,8.46
2023-01-03T05:30:49.643Z,8.44
2023-01-03T05:33:21.312Z,8.46
2023-01-03T05:35:53.014Z,8.37
2023-01-03T05:38:24.878Z,8.38
2023-01-03T05:40:56.874Z,8.32
2023-01-03T05:43:29.529Z,8.33
2023-01-03T05:46:01.820Z,8.25
2023-01-03T05:48:33.578Z,8.21
2023-01-03T05:51:05.565Z,8.26
2023-01-03T05:53:37.252Z,8.17
2023-01-03T05:56:09.923Z,8.13
2023-01-03T05:58:43.434Z,8.08
2023-01-03T06:01:16.774Z,8.02
2023-01-03T06:03:49.649Z,8.06
2023-01-03T06:06:19.884Z,8.08
2023-01-03T06:08:51.628Z,7.96
2023-01-03T06:11:23.810Z,7.96
2023-01-03T06:13:55.865Z,7.97
2023-01-03T06:16:46.072Z,7.99
2023-01-03T06:19:18.338Z,7.94
2023-01-03T06:21:50.160Z,7.94
2023-01-03T06:24:22.231Z,7.87
2023-01-03T06:26:54.107Z,7.87
2023-01-03T06:29:25.893Z,7.84
2023-01-03T06:31:59.387Z,7.75
2023-01-03T06:34:33.975Z,7.74
2023-01-03T06:37:05.988Z,7.78
2023-01-03T06:39:37.919Z,7.76
2023-01-03T06:42:29.911Z,7.66
2023-01-03T06:45:19.985Z,7.68
2023-01-03T06:48:09.262Z,7.58
2023-01-03T06:51:01.031Z,7.54
2023-01-03T06:53:37.237Z,7.55
2023-01-03T06:56:11.543Z,7.58
2023-01-03T06:58:43.318Z,7.51
2023-01-03T07:01:16.957Z,7.41
2023-01-03T07:03:48.979Z,7.43
2023-01-03T07:06:21.142Z,7.34
2023-01-03T07:08:53.295Z,7.32
2023-01-03T07:11:25.097Z,7.25
2023-01-03T07:13:59.429Z,7.17
2023-01-03T07:16:33.730Z,7.17
2023-01-03T07:19:07.178Z,7.20
2023-01-03T07:21:39.086Z,7.21
2023-01-03T07:24:14.237Z,7.14
2023-01-03T07:26:46.086Z,7.20
2023-01-03T07:29:18.604Z,7.14
2023-01-03T07:31:50.400Z,7.16
2023-01-03T07:34:22.148Z,7.24
2023-01-03T07:36:53.831Z,7.17
2023-01-03T07:39:25.497Z,7.14
2023-01-03T07:42:15.497Z,7.17
2023-01-03T07:44:47.367Z,7.12
2023-01-03T07:47:19.682Z,7.04
2023-01-03T07:49:57.087Z,7.01
2023-01-03T07:52:30.017Z,7.00
2023-01-03T07:55:01.732Z,7.08
2023-01-03T07:57:33.573Z,7.02
2023-01-03T08:00:12.130Z,7.10
2023-01-03T08:02:49.088Z,7.09
2023-01-03T08:05:21.219Z,6.91
2023-01-03T08:07:53.815Z,6.94
2023-01-03T08:10:43.309Z,7.00
2023-01-03T08:13:21.064Z,7.02
2023-01-03T08:15:55.374Z,7.05
2023-01-03T08:18:29.246Z,6.96
2023-01-03T08:21:01.414Z,6.91
2023-01-03T08:23:33.338Z,6.96
2023-01-03T08:26:07.607Z,6.81
2023-01-03T08:28:40.273Z,6.83
2023-01-03T08:31:17.397Z,6.90
2023-01-03T08:33:53.532Z,6.90
2023-01-03T08:36:28.309Z,6.94
2023-01-03T08:39:03.514Z,6.94
2023-01-03T08:41:39.795Z,7.01
2023-01-03T08:44:12.530Z,6.93
2023-01-03T08:46:44.958Z,7.03
2023-01-03T08:49:20.836Z,7.00
2023-01-03T08:51:51.164Z,7.03
2023-01-03T08:54:22.968Z,7.09
2023-01-03T08:56:54.737Z,7.10
2023-01-03T08:59:26.546Z,7.05
2023-01-03T09:02:02.733Z,7.10
2023-01-03T09:04:34.826Z,7.17
2023-01-03T09:07:06.919Z,7.21
2023-01-03T09:09:38.726Z,7.26
2023-01-03T09:12:10.549Z,7.21
2023-01-03T09:14:42.329Z,7.30
2023-01-03T09:17:14.220Z,7.17
2023-01-03T09:19:46.770Z,7.16
2023-01-03T09:22:19.016Z,7.17
2023-01-03T09:24:50.863Z,7.18
2023-01-03T09:27:22.887Z,7.27
2023-01-03T09:29:54.856Z,7.20
2023-01-03T09:32:26.708Z,7.25
2023-01-03T09:34:58.849Z,7.28
2023-01-03T09:37:33.291Z,7.40
2023-01-03T09:40:05.383Z,7.50
2023-01-03T09:42:58.010Z,7.52
2023-01-03T09:45:35.282Z,7.55
2023-01-03T09:48:08.232Z,7.62
2023-01-03T09:51:15.853Z,7.57
2023-01-03T09:53:56.849Z,7.70
2023-01-03T09:56:58.361Z,7.71
2023-01-03T09:59:52.035Z,7.77
2023-01-03T10:03:08.683Z,7.70
2023-01-03T10:05:52.599Z,7.67
2023-01-03T10:08:46.412Z,7.84
2023-01-03T10:11:25.022Z,7.87
2023-01-03T10:14:12.868Z,7.64
2023-01-03T10:16:55.022Z,7.55
2023-01-03T10:19:43.593Z,7.48
2023-01-03T10:22:20.413Z,7.51
2023-01-03T10:24:57.209Z,7.60
2023-01-03T10:27:32.148Z,7.55
2023-01-03T10:30:06.547Z,7.49
2023-01-03T10:33:03.281Z,7.53
2023-01-03T10:35:36.744Z,7.57
2023-01-03T10:38:08.551Z,7.52
2023-01-03T10:40:44.212Z,7.59
2023-01-03T10:43:21.322Z,7.67
2023-01-03T10:45:58.690Z,7.65
2023-01-03T10:49:00.025Z,7.75
2023-01-03T10:51:42.189Z,7.72
2023-01-03T10:54:27.997Z,7.63
2023-01-03T10:56:59.855Z,7.60
2023-01-03T10:59:33.204Z,7.57
2023-01-03T11:02:18.867Z,7.67
2023-01-03T11:05:06.524Z,7.71
2023-01-03T11:07:46.054Z,7.82
2023-01-03T11:10:20.446Z,7.77
2023-01-03T11:12:52.405Z,7.55
2023-01-03T11:15:39.152Z,7.66
2023-01-03T11:18:20.614Z,7.58
2023-01-03T11:21:02.883Z,7.31
2023-01-03T11:23:52.579Z,7.29
2023-01-03T11:26:37.111Z,7.48
2023-01-03T11:29:32.601Z,7.78
2023-01-03T11:32:21.726Z,7.94
2023-01-03T11:35:25.116Z,7.99
2023-01-03T11:38:11.311Z,8.12
2023-01-03T11:40:49.638Z,7.99
2023-01-03T11:43:35.085Z,7.96
2023-01-03T11:46:23.503Z,7.86
2023-01-03T11:49:08.295Z,7.92
2023-01-03T11:51:50.275Z,7.98
2023-01-03T11:54:49.340Z,7.95
2023-01-03T11:57:32.885Z,7.78
2023-01-03T12:00:13.352Z,7.81
2023-01-03T12:03:02.744Z,7.72
2023-01-03T12:05:53.615Z,7.62
2023-01-03T12:08:57.682Z,7.55
2023-01-03T12:11:47.843Z,7.46
2023-01-03T12:14:22.917Z,7.47
2023-01-03T12:17:01.264Z,7.71
2023-01-03T12:19:41.310Z,7.92
2023-01-03T12:22:20.939Z,8.23
2023-01-03T12:25:04.700Z,8.28
2023-01-03T12:27:43.331Z,8.49
2023-01-03T12:30:31.580Z,8.56
2023-01-03T12:33:13.265Z,8.81
2023-01-03T12:35:50.270Z,9.10
2023-01-03T12:38:29.915Z,9.02
2023-01-03T12:41:12.037Z,9.12
2023-01-03T12:43:50.007Z,9.34
2023-01-03T12:46:27.701Z,9.04
2023-01-03T12:49:06.497Z,8.99
2023-01-03T12:51:38.520Z,9.15
2023-01-03T12:54:23.697Z,9.03
2023-01-03T12:57:22.472Z,8.54
2023-01-03T13:00:21.976Z,8.33
2023-01-03T13:02:58.547Z,8.36
2023-01-03T13:05:37.998Z,8.36
2023-01-03T13:08:17.435Z,8.19
2023-01-03T13:10:53.337Z,8.12
2023-01-03T13:13:25.194Z,7.96
2023-01-03T13:15:57.431Z,8.06
2023-01-03T13:18:37.862Z,8.10
2023-01-03T13:21:52.342Z,7.95
2023-01-03T13:24:45.296Z,7.77
2023-01-03T13:27:38.724Z,7.83
2023-01-03T13:30:25.466Z,7.78
2023-01-03T13:33:16.918Z,7.76
2023-01-03T13:36:03.352Z,7.82
2023-01-03T13:38:36.311Z,7.80
2023-01-03T13:41:30.386Z,7.77
2023-01-03T13:44:10.836Z,7.67
2023-01-03T13:46:44.176Z,7.67
2023-01-03T13:49:23.008Z,7.63
2023-01-03T13:51:56.188Z,7.62
2023-01-03T13:54:59.126Z,7.58
2023-01-03T13:57:40.123Z,7.51
2023-01-03T14:00:22.148Z,7.50
2023-01-03T14:03:25.707Z,7.58
2023-01-03T14:06:27.321Z,7.49
2023-01-03T14:09:23.296Z,7.49
2023-01-03T14:12:37.842Z,7.53
2023-01-03T14:15:25.489Z,7.49
2023-01-03T14:18:01.710Z,7.35
2023-01-03T14:20:36.369Z,7.24
2023-01-03T14:23:48.928Z,7.22
2023-01-03T14:26:20.825Z,7.17
2023-01-03T14:28:55.953Z,7.21
2023-01-03T14:31:29.257Z,7.14
2023-01-03T14:34:03.481Z,7.15
2023-01-03T14:36:47.199Z,7.14
2023-01-03T14:42:05.871Z,7.01
2023-01-03T14:44:38.014Z,7.08
2023-01-03T14:47:17.533Z,6.98
2023-01-03T14:49:53.116Z,6.98
2023-01-03T14:52:31.431Z,6.93
2023-01-03T14:55:06.437Z,6.82
2023-01-03T14:57:41.419Z,6.77
2023-01-03T15:00:21.593Z,6.82
2023-01-03T15:02:57.045Z,6.77
2023-01-03T15:05:32.518Z,6.61
2023-01-03T15:08:22.119Z,6.60
2023-01-03T15:10:57.007Z,6.62
2023-01-03T15:13:34.732Z,6.61
2023-01-03T15:16:18.876Z,6.61
2023-01-03T15:18:53.095Z,6.56
2023-01-03T15:21:25.513Z,6.55
2023-01-03T15:23:57.982Z,6.56
2023-01-03T15:26:40.456Z,6.48
2023-01-03T15:29:16.080Z,6.58
2023-01-03T15:31:57.666Z,6.50
2023-01-03T15:34:42.768Z,6.38
2023-01-03T15:37:20.180Z,6.50
2023-01-03T15:39:54.372Z,6.61
2023-01-03T15:42:54.527Z,6.62
2023-01-03T15:45:36.764Z,6.51
2023-01-03T15:48:14.164Z,6.32
2023-01-03T15:50:50.699Z,6.28
2023-01-03T15:53:29.720Z,6.41
2023-01-03T15:56:05.487Z,6.33
2023-01-03T15:58:38.549Z,6.27
2023-01-03T16:01:11.580Z,6.16
2023-01-03T16:03:44.163Z,6.27
2023-01-03T16:06:16.365Z,6.15
2023-01-03T16:08:49.612Z,6.08
2023-01-03T16:11:31.397Z,6.10
2023-01-03T16:14:08.153Z,6.04
2023-01-03T16:16:45.019Z,6.01
2023-01-03T16:19:21.988Z,5.83
2023-01-03T16:22:32.946Z,5.91
2023-01-03T16:24:48.077Z,5.88
2023-01-03T16:27:22.823Z,5.80
2023-01-03T16:29:55.115Z,5.79
2023-01-03T16:32:29.768Z,5.82
2023-01-03T16:35:04.620Z,5.73
2023-01-03T16:37:36.776Z,5.71
2023-01-03T16:40:16.724Z,5.73
2023-01-03T16:42:48.713Z,5.69
2023-01-03T16:45:21.452Z,5.79
2023-01-03T16:47:54.381Z,5.80
2023-01-03T16:50:26.362Z,5.81
2023-01-03T16:52:58.737Z,5.91
2023-01-03T16:55:30.061Z,5.84
2023-01-03T16:58:02.259Z,5.80
2023-01-03T17:00:36.885Z,5.79
2023-01-03T17:03:08.750Z,5.64
2023-01-03T17:05:41.922Z,5.69
2023-01-03T17:08:16.775Z,5.68
2023-01-03T17:10:50.866Z,5.82
2023-01-03T17:13:29.012Z,5.89
2023-01-03T17:16:02.279Z,5.91
2023-01-03T17:18:37.625Z,5.93
2023-01-03T17:21:17.522Z,5.96
2023-01-03T17:23:50.072Z,5.98
2023-01-03T17:26:23.660Z,5.93
2023-01-03T17:28:56.886Z,5.93
2023-01-03T17:31:29.380Z,5.94
2023-01-03T17:34:01.255Z,5.97
2023-01-03T17:36:34.711Z,5.98
2023-01-03T17:39:08.444Z,5.80
2023-01-03T17:41:54.268Z,5.72
2023-01-03T17:44:26.078Z,5.75
2023-01-03T17:47:19.529Z,5.66
2023-01-03T17:49:51.309Z,5.52
2023-01-03T17:52:26.467Z,5.51
2023-01-03T17:54:58.356Z,5.41
2023-01-03T17:57:30.357Z,5.47
2023-01-03T18:00:02.105Z,5.43
2023-01-03T18:02:43.596Z,5.54
2023-01-03T18:05:26.059Z,5.51
2023-01-03T18:08:01.450Z,5.48
2023-01-03T18:10:40.142Z,5.47
2023-01-03T18:13:25.878Z,5.58
2023-01-03T18:15:58.285Z,5.40
2023-01-03T18:18:29.600Z,5.29
2023-01-03T18:21:01.845Z,5.29
2023-01-03T18:23:37.387Z,5.26
2023-01-03T18:26:12.153Z,5.27
2023-01-03T18:28:44.481Z,5.28
2023-01-03T18:31:21.144Z,5.51
2023-01-03T18:33:53.341Z,5.44
2023-01-03T18:36:30.238Z,5.53
2023-01-03T18:39:09.547Z,5.56
2023-01-03T18:41:42.750Z,5.51
2023-01-03T18:44:23.319Z,5.57
2023-01-03T18:46:56.464Z,5.50
2023-01-03T18:49:28.568Z,5.50
2023-01-03T18:52:00.959Z,5.46
2023-01-03T18:54:37.688Z,5.59
2023-01-03T18:57:13.355Z,5.75
2023-01-03T18:59:45.887Z,5.61
2023-01-03T19:02:19.481Z,5.74
2023-01-03T19:04:52.231Z,5.73
2023-01-03T19:07:30.348Z,5.75
2023-01-03T19:10:05.655Z,5.81
2023-01-03T19:12:40.801Z,5.86
2023-01-03T19:15:20.309Z,5.89
2023-01-03T19:17:52.646Z,5.95
2023-01-03T19:20:27.224Z,5.92
2023-01-03T19:22:59.337Z,5.94
2023-01-03T19:25:32.542Z,5.92
2023-01-03T19:28:06.362Z,5.85
2023-01-03T19:30:41.466Z,5.75
2023-01-03T19:33:15.338Z,5.68
2023-01-03T19:35:50.589Z,5.87
2023-01-03T19:38:22.838Z,5.76
2023-01-03T19:40:54.604Z,5.83
2023-01-03T19:43:26.871Z,5.91
2023-01-03T19:45:58.901Z,5.97
2023-01-03T19:48:31.331Z,6.05
2023-01-03T19:51:03.111Z,6.02
2023-01-03T19:53:35.063Z,6.05
2023-01-03T19:56:16.984Z,6.01
2023-01-03T19:58:49.571Z,6.04
2023-01-03T20:01:22.061Z,6.10
2023-01-03T20:03:54.350Z,6.12
2023-01-03T20:06:26.523Z,6.12
2023-01-03T20:08:58.367Z,6.10
2023-01-03T20:11:31.076Z,6.09
2023-01-03T20:14:04.117Z,6.05
2023-01-03T20:16:36.541Z,6.01
2023-01-03T20:19:12.224Z,5.97
2023-01-03T20:21:45.027Z,5.92
2023-01-03T20:24:25.614Z,5.85
2023-01-03T20:26:57.849Z,5.82
2023-01-03T20:29:29.614Z,5.54
2023-01-03T20:32:00.956Z,5.38
2023-01-03T20:34:33.486Z,5.23
2023-01-03T20:37:04.720Z,5.22
2023-01-03T20:39:38.631Z,5.22
2023-01-03T20:42:22.948Z,5.32
2023-01-03T20:44:56.756Z,5.56
2023-01-03T20:47:29.689Z,5.69
2023-01-03T20:50:00.251Z,5.78
2023-01-03T20:52:33.339Z,5.77
2023-01-03T20:55:06.594Z,5.74
2023-01-03T20:57:38.445Z,5.77
2023-01-03T21:00:26.172Z,5.75
2023-01-03T21:02:58.616Z,5.74
2023-01-03T21:05:30.859Z,5.75
2023-01-03T21:08:20.764Z,5.70
2023-01-03T21:10:54.059Z,5.69
2023-01-03T21:13:26.094Z,5.69
2023-01-03T21:15:58.835Z,5.67
2023-01-03T21:18:29.409Z,5.67
2023-01-03T21:21:06.647Z,5.63
2023-01-03T21:23:38.847Z,5.64
2023-01-03T21:26:10.599Z,5.65
2023-01-03T21:28:42.429Z,5.60
2023-01-03T21:31:20.219Z,5.60
2023-01-03T21:33:52.710Z,5.49
2023-01-03T21:36:28.639Z,5.59
2023-01-03T21:39:01.854Z,5.62
2023-01-03T21:41:55.795Z,5.62
2023-01-03T21:44:27.548Z,6.66
2023-01-03T21:46:59.575Z,9.77
2023-01-03T21:49:32.327Z,10.36
2023-01-03T21:52:04.122Z,8.11
2023-01-03T21:54:36.144Z,7.33
2023-01-03T21:57:08.112Z,6.92
2023-01-03T21:59:42.479Z,6.62
2023-01-03T22:02:32.857Z,6.33
2023-01-03T22:05:05.376Z,6.15
2023-01-03T22:07:37.192Z,6.18
2023-01-03T22:10:19.704Z,6.06
2023-01-03T22:12:52.142Z,5.98
2023-01-03T22:15:25.041Z,5.95
2023-01-03T22:17:58.012Z,5.79
2023-01-03T22:20:32.009Z,5.78
2023-01-03T22:23:08.967Z,5.75
2023-01-03T22:25:40.977Z,5.75
2023-01-03T22:28:12.713Z,5.73
2023-01-03T22:30:44.531Z,5.64
2023-01-03T22:33:16.350Z,5.62
2023-01-03T22:35:48.204Z,5.65
2023-01-03T22:38:20.259Z,5.66
2023-01-03T22:40:51.957Z,5.64
2023-01-03T22:43:23.741Z,5.60
2023-01-03T22:45:56.068Z,5.60
2023-01-03T22:48:28.216Z,5.55
2023-01-03T22:51:05.313Z,5.54
2023-01-03T22:53:37.828Z,5.50
2023-01-03T22:56:12.401Z,5.42
2023-01-03T22:58:45.030Z,5.38
2023-01-03T23:01:19.047Z,5.37
2023-01-03T23:03:51.079Z,5.33
2023-01-03T23:06:23.593Z,5.32
2023-01-03T23:08:55.683Z,5.35
2023-01-03T23:11:47.388Z,5.30
2023-01-03T23:14:21.561Z,5.32
2023-01-03T23:16:56.237Z,5.26
2023-01-03T23:19:29.550Z,5.09
2023-01-03T23:22:01.599Z,5.00
2023-01-03T23:24:33.568Z,4.92
2023-01-03T23:27:05.386Z,4.85
2023-01-03T23:29:37.061Z,4.79
2023-01-03T23:32:09.051Z,4.66
2023-01-03T23:34:40.971Z,4.67
2023-01-03T23:37:12.653Z,4.65
2023-01-03T23:39:44.698Z,4.65
2023-01-03T23:42:16.380Z,4.44
2023-01-03T23:44:48.203Z,4.32
2023-01-03T23:47:20.188Z,4.40
2023-01-03T23:49:52.050Z,4.26
2023-01-03T23:52:23.986Z,4.23
2023-01-03T23:55:01.445Z,4.28
2023-01-03T23:57:35.560Z,4.30
